sensor_id;sensor_type;location;lat;lon;timestamp;pressure;altitude;pressure_sealevel;temperature;humidity
5500;BME280;2772;42.700;23.304;2022-09-06T00:00:36;95773.00;;;18.01;100.00
5500;BME280;2772;42.700;23.304;2022-09-06T00:03:04;95775.91;;;17.96;100.00
5500;BME280;2772;42.700;23.304;2022-09-06T00:05:33;95763.78;;;17.90;100.00
5500;BME280;2772;42.700;23.304;2022-09-06T00:08:00;95764.00;;;17.85;100.00
5500;BME280;2772;42.700;23.304;2022-09-06T00:10:29;95768.97;;;17.95;100.00
5500;BME280;2772;42.700;23.304;2022-09-06T00:13:01;95774.22;;;17.67;100.00
5500;BME280;2772;42.700;23.304;2022-09-06T00:15:28;95775.03;;;17.47;100.00
5500;BME280;2772;42.700;23.304;2022-09-06T00:17:57;95763.41;;;17.34;100.00
5500;BME280;2772;42.700;23.304;2022-09-06T00:20:25;95763.97;;;17.28;100.00
5500;BME280;2772;42.700;23.304;2022-09-06T00:22:55;95759.53;;;17.11;100.00
5500;BME280;2772;42.700;23.304;2022-09-06T00:25:22;95764.06;;;17.19;100.00
5500;BME280;2772;42.700;23.304;2022-09-06T00:27:54;95761.16;;;17.24;100.00
5500;BME280;2772;42.700;23.304;2022-09-06T00:30:23;95763.16;;;17.15;100.00
5500;BME280;2772;42.700;23.304;2022-09-06T00:32:49;95759.59;;;17.23;100.00
5500;BME280;2772;42.700;23.304;2022-09-06T00:35:17;95760.00;;;17.13;100.00
5500;BME280;2772;42.700;23.304;2022-09-06T00:37:44;95753.16;;;17.16;100.00
5500;BME280;2772;42.700;23.304;2022-09-06T00:40:11;95757.97;;;17.10;100.00
5500;BME280;2772;42.700;23.304;2022-09-06T00:42:38;95755.47;;;17.05;100.00
5500;BME280;2772;42.700;23.304;2022-09-06T00:45:07;95752.41;;;16.95;100.00
5500;BME280;2772;42.700;23.304;2022-09-06T00:47:39;95748.88;;;16.82;100.00
5500;BME280;2772;42.700;23.304;2022-09-06T00:50:08;95754.22;;;16.70;100.00
5500;BME280;2772;42.700;23.304;2022-09-06T00:52:37;95755.91;;;16.75;100.00
5500;BME280;2772;42.700;23.304;2022-09-06T00:55:05;95755.25;;;16.78;100.00
5500;BME280;2772;42.700;23.304;2022-09-06T00:57:32;95758.50;;;16.83;100.00
5500;BME280;2772;42.700;23.304;2022-09-06T00:59:59;95764.38;;;16.85;100.00
5500;BME280;2772;42.700;23.304;2022-09-06T01:02:27;95754.31;;;16.74;100.00
5500;BME280;2772;42.700;23.304;2022-09-06T01:04:56;95759.31;;;16.84;100.00
5500;BME280;2772;42.700;23.304;2022-09-06T01:07:31;95767.53;;;16.87;100.00
5500;BME280;2772;42.700;23.304;2022-09-06T01:10:17;95765.59;;;16.88;100.00
5500;BME280;2772;42.700;23.304;2022-09-06T01:12:54;95761.41;;;16.78;100.00
5500;BME280;2772;42.700;23.304;2022-09-06T01:15:33;95759.13;;;16.68;100.00
5500;BME280;2772;42.700;23.304;2022-09-06T01:18:12;95755.59;;;16.76;100.00
5500;BME280;2772;42.700;23.304;2022-09-06T01:21:02;95757.75;;;16.83;100.00
5500;BME280;2772;42.700;23.304;2022-09-06T01:23:54;95752.44;;;16.74;100.00
5500;BME280;2772;42.700;23.304;2022-09-06T01:29:31;95752.44;;;16.74;100.00
5500;BME280;2772;42.700;23.304;2022-09-06T01:32:02;95751.56;;;16.82;100.00
5500;BME280;2772;42.700;23.304;2022-09-06T01:34:38;95749.34;;;16.84;100.00
5500;BME280;2772;42.700;23.304;2022-09-06T01:37:09;95753.94;;;16.84;100.00
5500;BME280;2772;42.700;23.304;2022-09-06T01:39:39;95754.72;;;16.84;100.00
5500;BME280;2772;42.700;23.304;2022-09-06T01:42:09;95753.03;;;16.80;100.00
5500;BME280;2772;42.700;23.304;2022-09-06T01:44:40;95750.63;;;16.78;100.00
5500;BME280;2772;42.700;23.304;2022-09-06T01:47:17;95738.50;;;16.72;100.00
5500;BME280;2772;42.700;23.304;2022-09-06T01:49:57;95738.50;;;16.72;100.00
5500;BME280;2772;42.700;23.304;2022-09-06T01:52:33;95739.16;;;16.69;100.00
5500;BME280;2772;42.700;23.304;2022-09-06T01:55:10;95736.47;;;16.69;100.00
5500;BME280;2772;42.700;23.304;2022-09-06T01:57:49;95728.50;;;16.61;100.00
5500;BME280;2772;42.700;23.304;2022-09-06T02:00:20;95728.69;;;16.56;100.00
5500;BME280;2772;42.700;23.304;2022-09-06T02:02:55;95729.81;;;16.55;100.00
5500;BME280;2772;42.700;23.304;2022-09-06T02:05:31;95734.53;;;16.58;100.00
5500;BME280;2772;42.700;23.304;2022-09-06T02:08:02;95732.34;;;16.51;100.00
5500;BME280;2772;42.700;23.304;2022-09-06T02:10:33;95728.88;;;16.51;100.00
5500;BME280;2772;42.700;23.304;2022-09-06T02:13:05;95722.28;;;16.40;100.00
5500;BME280;2772;42.700;23.304;2022-09-06T02:15:36;95724.63;;;16.50;100.00
5500;BME280;2772;42.700;23.304;2022-09-06T02:18:09;95726.56;;;16.41;100.00
5500;BME280;2772;42.700;23.304;2022-09-06T02:20:40;95730.53;;;16.35;100.00
5500;BME280;2772;42.700;23.304;2022-09-06T02:23:09;95728.50;;;16.32;100.00
5500;BME280;2772;42.700;23.304;2022-09-06T02:25:38;95720.97;;;16.25;100.00
5500;BME280;2772;42.700;23.304;2022-09-06T02:28:07;95733.88;;;16.32;100.00
5500;BME280;2772;42.700;23.304;2022-09-06T02:30:39;95733.22;;;16.35;100.00
5500;BME280;2772;42.700;23.304;2022-09-06T02:33:09;95737.22;;;16.29;100.00
5500;BME280;2772;42.700;23.304;2022-09-06T02:35:43;95735.59;;;16.36;100.00
5500;BME280;2772;42.700;23.304;2022-09-06T02:38:10;95733.53;;;16.33;100.00
5500;BME280;2772;42.700;23.304;2022-09-06T02:40:37;95735.91;;;16.35;100.00
5500;BME280;2772;42.700;23.304;2022-09-06T02:43:04;95742.69;;;16.41;100.00
5500;BME280;2772;42.700;23.304;2022-09-06T02:45:31;95740.97;;;16.36;100.00
5500;BME280;2772;42.700;23.304;2022-09-06T02:47:59;95747.47;;;16.35;100.00
5500;BME280;2772;42.700;23.304;2022-09-06T02:50:26;95745.78;;;16.22;100.00
5500;BME280;2772;42.700;23.304;2022-09-06T02:53:01;95747.91;;;16.17;100.00
5500;BME280;2772;42.700;23.304;2022-09-06T02:55:28;95743.84;;;16.02;100.00
5500;BME280;2772;42.700;23.304;2022-09-06T02:57:55;95743.81;;;16.11;100.00
5500;BME280;2772;42.700;23.304;2022-09-06T03:00:22;95743.81;;;16.11;100.00
5500;BME280;2772;42.700;23.304;2022-09-06T03:02:49;95734.72;;;16.03;100.00
5500;BME280;2772;42.700;23.304;2022-09-06T03:05:17;95735.63;;;16.07;100.00
5500;BME280;2772;42.700;23.304;2022-09-06T03:07:44;95736.84;;;15.89;100.00
5500;BME280;2772;42.700;23.304;2022-09-06T03:10:11;95726.63;;;16.03;100.00
5500;BME280;2772;42.700;23.304;2022-09-06T03:12:38;95737.25;;;16.00;100.00
5500;BME280;2772;42.700;23.304;2022-09-06T03:15:05;95734.72;;;16.03;100.00
5500;BME280;2772;42.700;23.304;2022-09-06T03:17:32;95740.91;;;15.95;100.00
5500;BME280;2772;42.700;23.304;2022-09-06T03:19:59;95739.78;;;15.96;100.00
5500;BME280;2772;42.700;23.304;2022-09-06T03:22:27;95732.94;;;16.07;100.00
5500;BME280;2772;42.700;23.304;2022-09-06T03:24:54;95740.66;;;16.09;100.00
5500;BME280;2772;42.700;23.304;2022-09-06T03:27:21;95749.06;;;16.07;100.00
5500;BME280;2772;42.700;23.304;2022-09-06T03:29:47;95752.97;;;16.10;100.00
5500;BME280;2772;42.700;23.304;2022-09-06T03:32:14;95746.19;;;16.12;100.00
5500;BME280;2772;42.700;23.304;2022-09-06T03:34:41;95751.22;;;16.14;100.00
5500;BME280;2772;42.700;23.304;2022-09-06T03:37:08;95750.91;;;16.15;100.00
5500;BME280;2772;42.700;23.304;2022-09-06T03:39:36;95748.22;;;16.15;100.00
5500;BME280;2772;42.700;23.304;2022-09-06T03:42:03;95753.28;;;16.17;100.00
5500;BME280;2772;42.700;23.304;2022-09-06T03:44:30;95758.78;;;16.20;100.00
5500;BME280;2772;42.700;23.304;2022-09-06T03:46:57;95760.03;;;16.23;100.00
5500;BME280;2772;42.700;23.304;2022-09-06T03:49:24;95757.66;;;16.21;100.00
5500;BME280;2772;42.700;23.304;2022-09-06T03:51:51;95771.09;;;16.21;100.00
5500;BME280;2772;42.700;23.304;2022-09-06T03:54:18;95767.63;;;16.21;100.00
5500;BME280;2772;42.700;23.304;2022-09-06T03:56:46;95763.69;;;16.18;100.00
5500;BME280;2772;42.700;23.304;2022-09-06T03:59:13;95761.91;;;16.22;100.00
5500;BME280;2772;42.700;23.304;2022-09-06T04:01:40;95762.25;;;16.21;100.00
5500;BME280;2772;42.700;23.304;2022-09-06T04:04:06;95771.84;;;16.01;100.00
5500;BME280;2772;42.700;23.304;2022-09-06T04:06:33;95772.78;;;16.05;100.00
5500;BME280;2772;42.700;23.304;2022-09-06T04:09:00;95772.31;;;16.03;100.00
5500;BME280;2772;42.700;23.304;2022-09-06T04:11:27;95775.94;;;16.07;100.00
5500;BME280;2772;42.700;23.304;2022-09-06T04:13:55;95777.13;;;15.89;100.00
5500;BME280;2772;42.700;23.304;2022-09-06T04:16:22;95763.56;;;15.85;100.00
5500;BME280;2772;42.700;23.304;2022-09-06T04:18:49;95768.19;;;15.76;100.00
5500;BME280;2772;42.700;23.304;2022-09-06T04:21:16;95759.78;;;15.78;100.00
5500;BME280;2772;42.700;23.304;2022-09-06T04:23:43;95763.88;;;15.84;100.00
5500;BME280;2772;42.700;23.304;2022-09-06T04:26:10;95763.06;;;15.83;100.00
5500;BME280;2772;42.700;23.304;2022-09-06T04:28:36;95765.00;;;15.83;100.00
5500;BME280;2772;42.700;23.304;2022-09-06T04:31:05;95772.75;;;15.76;100.00
5500;BME280;2772;42.700;23.304;2022-09-06T04:33:33;95770.31;;;15.92;100.00
5500;BME280;2772;42.700;23.304;2022-09-06T04:36:01;95772.72;;;15.84;100.00
5500;BME280;2772;42.700;23.304;2022-09-06T04:38:33;95774.25;;;15.94;100.00
5500;BME280;2772;42.700;23.304;2022-09-06T04:41:00;95773.88;;;16.04;100.00
5500;BME280;2772;42.700;23.304;2022-09-06T04:43:27;95765.81;;;16.04;100.00
5500;BME280;2772;42.700;23.304;2022-09-06T04:45:53;95770.13;;;15.97;100.00
5500;BME280;2772;42.700;23.304;2022-09-06T04:48:22;95768.19;;;16.06;100.00
5500;BME280;2772;42.700;23.304;2022-09-06T04:50:48;95767.41;;;16.05;100.00
5500;BME280;2772;42.700;23.304;2022-09-06T04:53:15;95767.94;;;16.19;100.00
5500;BME280;2772;42.700;23.304;2022-09-06T04:55:42;95762.31;;;16.12;100.00
5500;BME280;2772;42.700;23.304;2022-09-06T04:58:09;95775.56;;;16.17;100.00
5500;BME280;2772;42.700;23.304;2022-09-06T05:00:36;95763.63;;;16.06;100.00
5500;BME280;2772;42.700;23.304;2022-09-06T05:03:03;95764.59;;;16.02;100.00
5500;BME280;2772;42.700;23.304;2022-09-06T05:05:31;95769.25;;;16.13;100.00
5500;BME280;2772;42.700;23.304;2022-09-06T05:07:58;95758.78;;;16.20;100.00
5500;BME280;2772;42.700;23.304;2022-09-06T05:10:25;95753.69;;;16.27;100.00
5500;BME280;2772;42.700;23.304;2022-09-06T05:12:53;95759.91;;;16.40;100.00
5500;BME280;2772;42.700;23.304;2022-09-06T05:15:21;95760.91;;;16.35;100.00
5500;BME280;2772;42.700;23.304;2022-09-06T05:17:48;95759.25;;;16.51;100.00
5500;BME280;2772;42.700;23.304;2022-09-06T05:20:15;95758.72;;;16.58;100.00
5500;BME280;2772;42.700;23.304;2022-09-06T05:22:50;95761.66;;;16.44;100.00
5500;BME280;2772;42.700;23.304;2022-09-06T05:25:17;95766.59;;;16.63;100.00
5500;BME280;2772;42.700;23.304;2022-09-06T05:27:44;95757.34;;;16.72;100.00
5500;BME280;2772;42.700;23.304;2022-09-06T05:30:12;95758.72;;;16.78;100.00
5500;BME280;2772;42.700;23.304;2022-09-06T05:32:39;95762.28;;;16.70;100.00
5500;BME280;2772;42.700;23.304;2022-09-06T05:35:06;95757.28;;;16.81;100.00
5500;BME280;2772;42.700;23.304;2022-09-06T05:37:33;95770.78;;;16.93;100.00
5500;BME280;2772;42.700;23.304;2022-09-06T05:40:02;95766.56;;;17.04;100.00
5500;BME280;2772;42.700;23.304;2022-09-06T05:42:29;95769.53;;;17.11;100.00
5500;BME280;2772;42.700;23.304;2022-09-06T05:44:56;95772.13;;;17.19;100.00
5500;BME280;2772;42.700;23.304;2022-09-06T05:47:22;95771.47;;;17.22;100.00
5500;BME280;2772;42.700;23.304;2022-09-06T05:49:49;95775.66;;;17.32;100.00
5500;BME280;2772;42.700;23.304;2022-09-06T05:52:16;95771.63;;;17.38;100.00
5500;BME280;2772;42.700;23.304;2022-09-06T05:54:44;95767.50;;;17.40;100.00
5500;BME280;2772;42.700;23.304;2022-09-06T05:57:12;95759.56;;;17.44;100.00
5500;BME280;2772;42.700;23.304;2022-09-06T05:59:39;95761.97;;;17.58;100.00
5500;BME280;2772;42.700;23.304;2022-09-06T06:02:06;95757.59;;;17.65;100.00
5500;BME280;2772;42.700;23.304;2022-09-06T06:04:33;95757.81;;;17.72;100.00
5500;BME280;2772;42.700;23.304;2022-09-06T06:06:59;95758.50;;;17.81;100.00
5500;BME280;2772;42.700;23.304;2022-09-06T06:09:27;95767.16;;;17.75;100.00
5500;BME280;2772;42.700;23.304;2022-09-06T06:11:54;95755.22;;;17.76;100.00
5500;BME280;2772;42.700;23.304;2022-09-06T06:14:22;95748.63;;;17.97;100.00
5500;BME280;2772;42.700;23.304;2022-09-06T06:16:48;95741.00;;;18.23;100.00
5500;BME280;2772;42.700;23.304;2022-09-06T06:19:16;95743.56;;;18.32;100.00
5500;BME280;2772;42.700;23.304;2022-09-06T06:21:42;95734.13;;;18.50;100.00
5500;BME280;2772;42.700;23.304;2022-09-06T06:24:09;95739.03;;;18.60;100.00
5500;BME280;2772;42.700;23.304;2022-09-06T06:26:36;95746.66;;;18.70;100.00
5500;BME280;2772;42.700;23.304;2022-09-06T06:29:04;95750.81;;;18.79;100.00
5500;BME280;2772;42.700;23.304;2022-09-06T06:31:36;95749.84;;;18.87;100.00
5500;BME280;2772;42.700;23.304;2022-09-06T06:34:03;95738.06;;;18.80;100.00
5500;BME280;2772;42.700;23.304;2022-09-06T06:36:32;95745.25;;;18.88;100.00
5500;BME280;2772;42.700;23.304;2022-09-06T06:39:00;95746.84;;;18.89;100.00
5500;BME280;2772;42.700;23.304;2022-09-06T06:41:28;95745.53;;;18.98;100.00
5500;BME280;2772;42.700;23.304;2022-09-06T06:43:57;95753.97;;;19.09;100.00
5500;BME280;2772;42.700;23.304;2022-09-06T06:46:27;95741.56;;;19.08;100.00
5500;BME280;2772;42.700;23.304;2022-09-06T06:48:55;95749.19;;;19.18;100.00
5500;BME280;2772;42.700;23.304;2022-09-06T06:51:24;95745.78;;;19.21;100.00
5500;BME280;2772;42.700;23.304;2022-09-06T06:53:52;95748.47;;;19.33;100.00
5500;BME280;2772;42.700;23.304;2022-09-06T06:56:22;95749.78;;;19.39;100.00
5500;BME280;2772;42.700;23.304;2022-09-06T06:58:51;95743.38;;;19.44;100.00
5500;BME280;2772;42.700;23.304;2022-09-06T07:01:19;95747.03;;;19.51;100.00
5500;BME280;2772;42.700;23.304;2022-09-06T07:03:47;95751.84;;;19.58;100.00
5500;BME280;2772;42.700;23.304;2022-09-06T07:06:16;95752.81;;;19.65;100.00
5500;BME280;2772;42.700;23.304;2022-09-06T07:08:43;95756.81;;;19.71;100.00
5500;BME280;2772;42.700;23.304;2022-09-06T07:11:12;95758.81;;;19.74;100.00
5500;BME280;2772;42.700;23.304;2022-09-06T07:13:40;95761.16;;;19.76;100.00
5500;BME280;2772;42.700;23.304;2022-09-06T07:16:08;95754.22;;;19.75;100.00
5500;BME280;2772;42.700;23.304;2022-09-06T07:18:35;95774.50;;;19.84;100.00
5500;BME280;2772;42.700;23.304;2022-09-06T07:21:07;95761.53;;;19.90;100.00
5500;BME280;2772;42.700;23.304;2022-09-06T07:23:36;95758.72;;;19.86;100.00
5500;BME280;2772;42.700;23.304;2022-09-06T07:26:03;95761.28;;;19.79;100.00
5500;BME280;2772;42.700;23.304;2022-09-06T07:28:30;95769.19;;;19.88;100.00
5500;BME280;2772;42.700;23.304;2022-09-06T07:30:57;95765.09;;;19.78;100.00
5500;BME280;2772;42.700;23.304;2022-09-06T07:33:25;95761.94;;;19.61;100.00
5500;BME280;2772;42.700;23.304;2022-09-06T07:35:56;95753.66;;;19.69;100.00
5500;BME280;2772;42.700;23.304;2022-09-06T07:38:23;95760.31;;;19.87;100.00
5500;BME280;2772;42.700;23.304;2022-09-06T07:40:56;95764.75;;;19.95;100.00
5500;BME280;2772;42.700;23.304;2022-09-06T07:43:23;95757.25;;;20.04;100.00
5500;BME280;2772;42.700;23.304;2022-09-06T07:46:00;95760.13;;;20.11;100.00
5500;BME280;2772;42.700;23.304;2022-09-06T07:48:28;95761.19;;;20.22;100.00
5500;BME280;2772;42.700;23.304;2022-09-06T07:51:02;95757.06;;;20.28;100.00
5500;BME280;2772;42.700;23.304;2022-09-06T07:53:29;95760.38;;;20.37;100.00
5500;BME280;2772;42.700;23.304;2022-09-06T07:55:58;95765.97;;;20.44;100.00
5500;BME280;2772;42.700;23.304;2022-09-06T07:58:25;95753.72;;;20.51;100.00
5500;BME280;2772;42.700;23.304;2022-09-06T08:00:52;95754.66;;;20.58;100.00
5500;BME280;2772;42.700;23.304;2022-09-06T08:03:18;95757.63;;;20.53;100.00
5500;BME280;2772;42.700;23.304;2022-09-06T08:05:48;95760.41;;;20.57;100.00
5500;BME280;2772;42.700;23.304;2022-09-06T08:08:14;95751.19;;;20.58;100.00
5500;BME280;2772;42.700;23.304;2022-09-06T08:10:41;95747.31;;;20.59;100.00
5500;BME280;2772;42.700;23.304;2022-09-06T08:13:09;95749.50;;;20.69;100.00
5500;BME280;2772;42.700;23.304;2022-09-06T08:15:37;95748.69;;;20.68;100.00
5500;BME280;2772;42.700;23.304;2022-09-06T08:18:05;95748.19;;;20.63;100.00
5500;BME280;2772;42.700;23.304;2022-09-06T08:20:31;95754.47;;;20.67;100.00
5500;BME280;2772;42.700;23.304;2022-09-06T08:22:58;95757.19;;;20.67;100.00
5500;BME280;2772;42.700;23.304;2022-09-06T08:25:26;95753.84;;;20.73;100.00
5500;BME280;2772;42.700;23.304;2022-09-06T08:27:53;95743.50;;;20.79;100.00
5500;BME280;2772;42.700;23.304;2022-09-06T08:30:21;95738.53;;;20.81;100.00
5500;BME280;2772;42.700;23.304;2022-09-06T08:32:48;95742.78;;;20.82;100.00
5500;BME280;2772;42.700;23.304;2022-09-06T08:35:16;95745.22;;;20.87;100.00
5500;BME280;2772;42.700;23.304;2022-09-06T08:37:43;95728.75;;;20.95;100.00
5500;BME280;2772;42.700;23.304;2022-09-06T08:40:10;95738.69;;;21.07;100.00
5500;BME280;2772;42.700;23.304;2022-09-06T08:42:37;95733.00;;;21.12;100.00
5500;BME280;2772;42.700;23.304;2022-09-06T08:45:07;95736.97;;;21.18;100.00
5500;BME280;2772;42.700;23.304;2022-09-06T08:47:38;95732.00;;;21.20;100.00
5500;BME280;2772;42.700;23.304;2022-09-06T08:50:06;95730.84;;;21.21;100.00
5500;BME280;2772;42.700;23.304;2022-09-06T08:52:41;95732.41;;;21.22;100.00
5500;BME280;2772;42.700;23.304;2022-09-06T08:55:19;95717.66;;;21.19;100.00
5500;BME280;2772;42.700;23.304;2022-09-06T08:57:58;95709.25;;;21.24;100.00
5500;BME280;2772;42.700;23.304;2022-09-06T09:00:26;95716.03;;;21.37;100.00
5500;BME280;2772;42.700;23.304;2022-09-06T09:03:06;95717.69;;;21.42;100.00
5500;BME280;2772;42.700;23.304;2022-09-06T09:05:35;95711.97;;;21.47;100.00
5500;BME280;2772;42.700;23.304;2022-09-06T09:08:11;95711.31;;;21.53;100.00
5500;BME280;2772;42.700;23.304;2022-09-06T09:10:44;95709.09;;;21.59;100.00
5500;BME280;2772;42.700;23.304;2022-09-06T09:13:18;95693.97;;;21.58;100.00
5500;BME280;2772;42.700;23.304;2022-09-06T09:15:46;95691.91;;;21.51;100.00
5500;BME280;2772;42.700;23.304;2022-09-06T09:18:19;95698.25;;;21.59;100.00
5500;BME280;2772;42.700;23.304;2022-09-06T09:20:48;95691.75;;;21.63;100.00
5500;BME280;2772;42.700;23.304;2022-09-06T09:23:15;95686.78;;;21.69;100.00
5500;BME280;2772;42.700;23.304;2022-09-06T09:25:42;95688.06;;;21.75;100.00
5500;BME280;2772;42.700;23.304;2022-09-06T09:28:15;95682.34;;;21.80;100.00
5500;BME280;2772;42.700;23.304;2022-09-06T09:30:48;95682.88;;;21.89;100.00
5500;BME280;2772;42.700;23.304;2022-09-06T09:33:37;95678.75;;;21.95;100.00
5500;BME280;2772;42.700;23.304;2022-09-06T09:36:06;95672.97;;;22.00;100.00
5500;BME280;2772;42.700;23.304;2022-09-06T09:38:40;95673.84;;;22.04;100.00
5500;BME280;2772;42.700;23.304;2022-09-06T09:41:08;95673.09;;;22.07;100.00
5500;BME280;2772;42.700;23.304;2022-09-06T09:43:38;95657.94;;;22.06;100.00
5500;BME280;2772;42.700;23.304;2022-09-06T09:46:09;95660.78;;;22.13;99.56
5500;BME280;2772;42.700;23.304;2022-09-06T09:48:38;95664.28;;;22.14;100.00
5500;BME280;2772;42.700;23.304;2022-09-06T09:51:18;95662.09;;;22.23;100.00
5500;BME280;2772;42.700;23.304;2022-09-06T09:53:49;95662.59;;;22.32;100.00
5500;BME280;2772;42.700;23.304;2022-09-06T09:56:22;95654.88;;;22.34;98.65
5500;BME280;2772;42.700;23.304;2022-09-06T09:58:52;95655.31;;;22.39;99.33
5500;BME280;2772;42.700;23.304;2022-09-06T10:01:22;95651.13;;;22.45;96.51
5500;BME280;2772;42.700;23.304;2022-09-06T10:03:59;95652.44;;;22.51;94.18
5500;BME280;2772;42.700;23.304;2022-09-06T10:06:26;95646.63;;;22.53;94.86
5500;BME280;2772;42.700;23.304;2022-09-06T10:08:54;95647.81;;;22.55;91.75
5500;BME280;2772;42.700;23.304;2022-09-06T10:11:36;95645.59;;;22.64;92.81
5500;BME280;2772;42.700;23.304;2022-09-06T10:14:09;95637.88;;;22.66;89.34
5500;BME280;2772;42.700;23.304;2022-09-06T10:16:43;95641.41;;;22.70;88.16
5500;BME280;2772;42.700;23.304;2022-09-06T10:22:21;95622.91;;;22.79;94.91
5500;BME280;2772;42.700;23.304;2022-09-06T10:25:16;95629.19;;;22.87;95.21
5500;BME280;2772;42.700;23.304;2022-09-06T10:27:58;95629.31;;;22.97;95.95
5500;BME280;2772;42.700;23.304;2022-09-06T10:30:31;95625.50;;;23.05;86.98
5500;BME280;2772;42.700;23.304;2022-09-06T10:33:04;95623.59;;;23.09;86.83
5500;BME280;2772;42.700;23.304;2022-09-06T10:35:34;95618.25;;;23.16;85.26
5500;BME280;2772;42.700;23.304;2022-09-06T10:38:19;95616.03;;;23.25;83.15
5500;BME280;2772;42.700;23.304;2022-09-06T10:40:57;95614.53;;;23.31;79.03
5500;BME280;2772;42.700;23.304;2022-09-06T10:43:29;95611.06;;;23.34;79.53
5500;BME280;2772;42.700;23.304;2022-09-06T10:46:02;95604.91;;;23.41;78.96
5500;BME280;2772;42.700;23.304;2022-09-06T10:48:38;95603.78;;;23.45;77.70
5500;BME280;2772;42.700;23.304;2022-09-06T10:51:11;95605.34;;;23.50;74.19
5500;BME280;2772;42.700;23.304;2022-09-06T10:53:49;95613.50;;;23.47;61.55
5500;BME280;2772;42.700;23.304;2022-09-06T10:56:21;95604.56;;;23.46;58.48
5500;BME280;2772;42.700;23.304;2022-09-06T10:58:52;95599.16;;;23.50;59.98
5500;BME280;2772;42.700;23.304;2022-09-06T11:01:31;95598.78;;;23.55;65.28
5500;BME280;2772;42.700;23.304;2022-09-06T11:04:00;95604.69;;;23.60;64.25
5500;BME280;2772;42.700;23.304;2022-09-06T11:06:32;95598.13;;;23.68;64.95
5500;BME280;2772;42.700;23.304;2022-09-06T11:09:09;95587.66;;;23.74;60.25
5500;BME280;2772;42.700;23.304;2022-09-06T11:11:40;95592.78;;;23.79;57.93
5500;BME280;2772;42.700;23.304;2022-09-06T11:14:11;95592.81;;;23.86;56.88
5500;BME280;2772;42.700;23.304;2022-09-06T11:16:43;95593.69;;;23.97;57.75
5500;BME280;2772;42.700;23.304;2022-09-06T11:19:15;95594.13;;;24.02;61.29
5500;BME280;2772;42.700;23.304;2022-09-06T11:24:49;95587.19;;;24.12;58.31
5500;BME280;2772;42.700;23.304;2022-09-06T11:27:31;95582.13;;;24.14;54.53
5500;BME280;2772;42.700;23.304;2022-09-06T11:30:00;95586.06;;;24.20;53.48
5500;BME280;2772;42.700;23.304;2022-09-06T11:32:32;95581.00;;;24.22;52.69
5500;BME280;2772;42.700;23.304;2022-09-06T11:35:02;95585.31;;;24.23;51.92
5500;BME280;2772;42.700;23.304;2022-09-06T11:37:31;95589.59;;;24.27;50.20
5500;BME280;2772;42.700;23.304;2022-09-06T11:40:06;95576.00;;;24.31;50.14
5500;BME280;2772;42.700;23.304;2022-09-06T11:42:40;95573.72;;;24.40;52.08
5500;BME280;2772;42.700;23.304;2022-09-06T11:45:15;95572.50;;;24.37;50.27
5500;BME280;2772;42.700;23.304;2022-09-06T11:47:47;95569.06;;;24.47;50.70
5500;BME280;2772;42.700;23.304;2022-09-06T11:50:21;95566.75;;;24.56;52.62
5500;BME280;2772;42.700;23.304;2022-09-06T11:52:53;95560.16;;;24.64;54.15
5500;BME280;2772;42.700;23.304;2022-09-06T11:55:34;95564.50;;;24.69;52.82
5500;BME280;2772;42.700;23.304;2022-09-06T11:58:05;95566.03;;;24.70;51.03
5500;BME280;2772;42.700;23.304;2022-09-06T12:00:35;95566.84;;;24.70;50.75
5500;BME280;2772;42.700;23.304;2022-09-06T12:03:02;95559.06;;;24.72;53.77
5500;BME280;2772;42.700;23.304;2022-09-06T12:05:32;95549.72;;;24.77;53.44
5500;BME280;2772;42.700;23.304;2022-09-06T12:08:25;95556.75;;;24.85;52.33
5500;BME280;2772;42.700;23.304;2022-09-06T12:11:03;95548.22;;;25.01;53.27
5500;BME280;2772;42.700;23.304;2022-09-06T12:13:51;95548.22;;;25.11;50.90
5500;BME280;2772;42.700;23.304;2022-09-06T12:16:19;95544.75;;;25.21;49.44
5500;BME280;2772;42.700;23.304;2022-09-06T12:18:58;95537.31;;;25.22;49.17
5500;BME280;2772;42.700;23.304;2022-09-06T12:21:36;95531.09;;;25.32;51.27
5500;BME280;2772;42.700;23.304;2022-09-06T12:24:05;95529.19;;;25.53;53.65
5500;BME280;2772;42.700;23.304;2022-09-06T12:26:47;95528.78;;;25.69;58.47
5500;BME280;2772;42.700;23.304;2022-09-06T12:29:22;95529.16;;;25.71;56.65
5500;BME280;2772;42.700;23.304;2022-09-06T12:31:50;95530.34;;;25.70;58.11
5500;BME280;2772;42.700;23.304;2022-09-06T12:34:21;95538.13;;;25.68;57.28
5500;BME280;2772;42.700;23.304;2022-09-06T12:36:55;95533.06;;;25.63;57.94
5500;BME280;2772;42.700;23.304;2022-09-06T12:39:23;95545.56;;;25.39;58.35
5500;BME280;2772;42.700;23.304;2022-09-06T12:41:54;95535.00;;;25.31;58.98
5500;BME280;2772;42.700;23.304;2022-09-06T12:44:28;95540.44;;;25.24;60.03
5500;BME280;2772;42.700;23.304;2022-09-06T12:47:00;95531.88;;;25.18;60.57
5500;BME280;2772;42.700;23.304;2022-09-06T12:49:28;95526.03;;;25.16;62.21
5500;BME280;2772;42.700;23.304;2022-09-06T12:52:06;95523.28;;;24.95;61.62
5500;BME280;2772;42.700;23.304;2022-09-06T12:54:41;95521.34;;;24.88;63.16
5500;BME280;2772;42.700;23.304;2022-09-06T12:57:16;95510.81;;;24.90;63.46
5500;BME280;2772;42.700;23.304;2022-09-06T12:59:47;95518.63;;;24.88;64.92
5500;BME280;2772;42.700;23.304;2022-09-06T13:02:19;95516.66;;;24.89;64.95
5500;BME280;2772;42.700;23.304;2022-09-06T13:04:49;95513.53;;;24.80;64.35
5500;BME280;2772;42.700;23.304;2022-09-06T13:07:18;95520.91;;;24.79;64.60
5500;BME280;2772;42.700;23.304;2022-09-06T13:09:48;95515.47;;;24.76;65.53
5500;BME280;2772;42.700;23.304;2022-09-06T13:12:22;95516.66;;;24.85;65.95
5500;BME280;2772;42.700;23.304;2022-09-06T13:14:51;95520.19;;;24.93;66.26
5500;BME280;2772;42.700;23.304;2022-09-06T13:17:24;95515.13;;;24.91;64.33
5500;BME280;2772;42.700;23.304;2022-09-06T13:19:52;95517.03;;;24.98;67.02
5500;BME280;2772;42.700;23.304;2022-09-06T13:22:40;95519.75;;;24.87;65.82
5500;BME280;2772;42.700;23.304;2022-09-06T13:25:16;95510.81;;;24.80;66.98
5500;BME280;2772;42.700;23.304;2022-09-06T13:27:51;95513.53;;;24.83;67.05